createdAt,value
2023-01-17T00:02:17.832Z,50.00
2023-01-17T00:05:03.625Z,49.42
2023-01-17T00:07:49.262Z,45.83
2023-01-17T00:10:21.804Z,47.08
2023-01-17T00:13:02.716Z,48.72
2023-01-17T00:15:31.425Z,52.50
2023-01-17T00:17:58.781Z,48.90
2023-01-17T00:20:47.507Z,47.53
2023-01-17T00:23:37.649Z,48.38
2023-01-17T00:26:10.157Z,48.63
2023-01-17T00:28:41.150Z,44.33
2023-01-17T00:31:09.452Z,50.03
2023-01-17T00:33:39.400Z,49.78
2023-01-17T00:36:07.162Z,51.70
2023-01-17T00:38:36.838Z,50.30
2023-01-17T00:41:06.712Z,50.22
2023-01-17T00:43:54.393Z,53.03
2023-01-17T00:46:40.030Z,47.05
2023-01-17T00:49:25.946Z,49.28
2023-01-17T00:52:11.560Z,49.92
2023-01-17T00:54:56.982Z,49.22
2023-01-17T00:57:42.521Z,49.83
2023-01-17T01:00:28.607Z,46.97
2023-01-17T01:03:13.972Z,55.28
2023-01-17T01:06:01.556Z,51.85
2023-01-17T01:08:48.782Z,54.58
2023-01-17T01:11:36.695Z,54.95
2023-01-17T01:14:23.237Z,53.45
2023-01-17T01:17:08.951Z,56.92
2023-01-17T01:19:54.456Z,55.05
2023-01-17T01:22:39.715Z,57.28
2023-01-17T01:25:25.320Z,53.85
2023-01-17T01:28:10.527Z,51.45
2023-01-17T01:30:56.021Z,56.17
2023-01-17T01:33:22.751Z,57.85
2023-01-17T01:35:51.787Z,55.42
2023-01-17T01:38:20.787Z,54.30
2023-01-17T01:40:53.362Z,60.15
2023-01-17T01:43:42.472Z,55.50
2023-01-17T01:46:15.143Z,57.80
2023-01-17T01:49:06.572Z,61.35
2023-01-17T01:51:45.804Z,59.17
2023-01-17T01:54:22.107Z,53.22
2023-01-17T01:56:50.456Z,57.35
2023-01-17T01:59:23.356Z,55.92
2023-01-17T02:01:53.205Z,58.53
2023-01-17T02:04:20.900Z,54.90
2023-01-17T02:07:00.610Z,49.10
2023-01-17T02:09:27.733Z,55.03
2023-01-17T02:11:55.004Z,55.10
2023-01-17T02:14:22.778Z,58.58
2023-01-17T02:17:01.533Z,54.13
2023-01-17T02:19:48.159Z,60.25
2023-01-17T02:22:34.268Z,56.40
2023-01-17T02:25:31.289Z,52.15
2023-01-17T02:28:16.297Z,52.25
2023-01-17T02:30:54.499Z,49.30
2023-01-17T02:33:38.690Z,56.22
2023-01-17T02:36:22.128Z,56.08
2023-01-17T02:39:11.846Z,55.05
2023-01-17T02:41:42.856Z,53.50
2023-01-17T02:44:11.053Z,56.03
2023-01-17T02:47:27.840Z,49.03
2023-01-17T02:50:01.580Z,55.47
2023-01-17T02:52:46.950Z,51.25
2023-01-17T02:55:32.185Z,52.20
2023-01-17T02:58:32.996Z,54.03
2023-01-17T03:01:43.030Z,52.83
2023-01-17T03:04:23.689Z,57.22
2023-01-17T03:07:02.055Z,51.65
2023-01-17T03:09:33.023Z,57.22
2023-01-17T03:12:00.455Z,56.83
2023-01-17T03:14:31.087Z,55.13
2023-01-17T03:16:58.021Z,60.78
2023-01-17T03:19:24.811Z,50.55
2023-01-17T03:21:51.544Z,54.35
2023-01-17T03:24:18.325Z,60.53
2023-01-17T03:26:45.076Z,52.72
2023-01-17T03:29:11.992Z,57.85
2023-01-17T03:31:38.741Z,57.85
2023-01-17T03:34:05.526Z,59.42
2023-01-17T03:36:32.286Z,62.42
2023-01-17T03:38:59.053Z,62.85
2023-01-17T03:41:26.090Z,56.20
2023-01-17T03:43:55.249Z,56.65
2023-01-17T03:46:24.541Z,65.97
2023-01-17T03:48:52.085Z,66.28
2023-01-17T03:51:19.060Z,61.22
2023-01-17T03:53:48.555Z,64.38
2023-01-17T03:56:15.515Z,60.30
2023-01-17T03:58:42.577Z,65.05
2023-01-17T04:01:09.636Z,59.67
2023-01-17T04:03:36.439Z,57.47
2023-01-17T04:06:03.339Z,60.30
2023-01-17T04:08:30.572Z,57.92
2023-01-17T04:10:57.454Z,60.22
2023-01-17T04:13:24.329Z,59.35
2023-01-17T04:15:51.763Z,54.10
2023-01-17T04:18:20.399Z,51.88
2023-01-17T04:20:47.303Z,56.50
2023-01-17T04:23:14.109Z,54.67
2023-01-17T04:25:40.975Z,56.80
2023-01-17T04:28:07.755Z,62.05
2023-01-17T04:30:34.609Z,60.25
2023-01-17T04:33:02.968Z,56.00
2023-01-17T04:35:31.556Z,54.85
2023-01-17T04:37:58.285Z,60.85
2023-01-17T04:40:27.867Z,53.78
2023-01-17T04:42:54.608Z,62.20
2023-01-17T04:45:21.930Z,60.20
2023-01-17T04:47:48.668Z,56.53
2023-01-17T04:50:15.702Z,59.60
2023-01-17T04:52:45.175Z,56.83
2023-01-17T04:55:11.986Z,60.50
2023-01-17T04:57:38.783Z,73.07
2023-01-17T05:00:06.177Z,59.20
2023-01-17T05:02:33.009Z,84.55
2023-01-17T05:04:59.775Z,93.32
2023-01-17T05:07:26.552Z,89.88
2023-01-17T05:09:53.307Z,88.18
2023-01-17T05:12:20.114Z,62.92
2023-01-17T05:14:49.406Z,137.02
2023-01-17T05:17:16.170Z,79.15
2023-01-17T05:19:42.915Z,156.43
2023-01-17T05:22:15.028Z,111.78
2023-01-17T05:24:45.673Z,69.45
2023-01-17T05:27:13.393Z,315.58
2023-01-17T05:29:42.380Z,219.25
2023-01-17T05:32:09.197Z,325.23
2023-01-17T05:34:38.422Z,142.25
2023-01-17T05:37:05.167Z,269.50
2023-01-17T05:39:31.991Z,73.20
2023-01-17T05:41:59.768Z,492.52
2023-01-17T05:44:29.701Z,477.48
2023-01-17T05:46:56.766Z,180.60
2023-01-17T05:49:23.618Z,194.25
2023-01-17T05:51:50.743Z,321.95
2023-01-17T05:54:18.076Z,104.32
2023-01-17T05:56:47.471Z,64.07
2023-01-17T05:59:14.470Z,71.55
2023-01-17T06:01:41.310Z,59.58
2023-01-17T06:04:08.123Z,65.55
2023-01-17T06:06:34.937Z,61.67
2023-01-17T06:09:01.695Z,82.60
2023-01-17T06:11:28.496Z,66.30
2023-01-17T06:13:55.262Z,79.25
2023-01-17T06:16:22.085Z,93.38
2023-01-17T06:18:48.861Z,70.80
2023-01-17T06:21:15.601Z,112.70
2023-01-17T06:23:45.415Z,76.65
2023-01-17T06:26:12.243Z,73.40
2023-01-17T06:28:39.180Z,75.22
2023-01-17T06:31:09.400Z,69.13
2023-01-17T06:33:36.296Z,64.53
2023-01-17T06:36:06.254Z,70.32
2023-01-17T06:38:33.149Z,71.78
2023-01-17T06:41:06.655Z,69.93
2023-01-17T06:43:34.891Z,64.70
2023-01-17T06:46:02.156Z,70.57
2023-01-17T06:48:30.291Z,66.88
2023-01-17T06:50:58.015Z,69.80
2023-01-17T06:53:28.156Z,70.25
2023-01-17T06:55:58.859Z,73.22
2023-01-17T06:58:26.965Z,71.45
2023-01-17T07:00:53.995Z,63.53
2023-01-17T07:03:23.351Z,68.18
2023-01-17T07:05:52.736Z,65.60
2023-01-17T07:08:20.585Z,63.85
2023-01-17T07:10:48.046Z,69.85
2023-01-17T07:13:15.047Z,64.72
2023-01-17T07:15:44.427Z,58.67
2023-01-17T07:18:11.190Z,65.68
2023-01-17T07:20:38.545Z,63.60
2023-01-17T07:23:06.165Z,61.28
2023-01-17T07:25:32.938Z,67.10
2023-01-17T07:28:00.445Z,63.83
2023-01-17T07:30:30.278Z,75.57
2023-01-17T07:32:57.131Z,69.53
2023-01-17T07:35:27.699Z,64.20
2023-01-17T07:37:54.824Z,67.63
2023-01-17T07:40:22.704Z,66.68
2023-01-17T07:42:49.752Z,67.70
2023-01-17T07:45:19.474Z,63.28
2023-01-17T07:47:51.451Z,67.20
2023-01-17T07:50:18.436Z,65.70
2023-01-17T07:52:49.888Z,65.78
2023-01-17T07:55:19.128Z,66.72
2023-01-17T07:57:49.723Z,61.03
2023-01-17T08:00:17.496Z,62.75
2023-01-17T08:02:53.084Z,73.25
2023-01-17T08:05:21.990Z,61.30
2023-01-17T08:07:51.236Z,69.78
2023-01-17T08:10:18.347Z,71.25
2023-01-17T08:12:49.981Z,58.67
2023-01-17T08:15:17.950Z,71.38
2023-01-17T08:17:49.443Z,65.45
2023-01-17T08:20:16.813Z,63.55
2023-01-17T08:22:43.585Z,54.67
2023-01-17T08:25:10.681Z,61.65
2023-01-17T08:27:37.437Z,60.83
2023-01-17T08:30:05.569Z,56.47
2023-01-17T08:32:32.869Z,56.67
2023-01-17T08:34:59.652Z,50.90
2023-01-17T08:37:26.447Z,49.17
2023-01-17T08:39:53.187Z,46.53
2023-01-17T08:42:20.002Z,48.10
2023-01-17T08:44:48.018Z,50.38
2023-01-17T08:47:14.784Z,49.10
2023-01-17T08:49:45.749Z,47.92
2023-01-17T08:52:16.187Z,40.72
2023-01-17T08:54:42.935Z,52.45
2023-01-17T08:57:10.429Z,43.33
2023-01-17T08:59:37.488Z,45.67
2023-01-17T09:02:15.976Z,49.55
2023-01-17T09:04:47.081Z,50.03
2023-01-17T09:07:15.361Z,41.25
2023-01-17T09:09:44.536Z,41.33
2023-01-17T09:12:11.311Z,49.85
2023-01-17T09:14:38.514Z,48.85
2023-01-17T09:17:13.156Z,39.03
2023-01-17T09:19:46.564Z,42.40
2023-01-17T09:22:13.620Z,38.25
2023-01-17T09:24:42.519Z,37.40
2023-01-17T09:27:09.290Z,43.90
2023-01-17T09:29:36.089Z,40.13
2023-01-17T09:32:04.928Z,36.15
2023-01-17T09:34:31.697Z,33.28
2023-01-17T09:37:00.500Z,36.28
2023-01-17T09:39:27.345Z,28.15
2023-01-17T09:42:21.936Z,29.55
2023-01-17T09:44:53.563Z,27.30
2023-01-17T09:47:43.789Z,26.27
2023-01-17T09:50:20.142Z,48.65
2023-01-17T09:52:49.971Z,22.58
2023-01-17T09:55:18.136Z,24.05
2023-01-17T09:57:51.847Z,21.10
2023-01-17T10:00:27.423Z,28.15
2023-01-17T10:03:29.510Z,24.08
2023-01-17T10:08:41.464Z,19.35
2023-01-17T10:11:24.467Z,19.50
2023-01-17T10:14:24.813Z,17.50
2023-01-17T10:17:01.021Z,18.75
2023-01-17T10:19:55.065Z,16.90
2023-01-17T10:22:44.848Z,22.00
2023-01-17T10:25:28.297Z,21.90
2023-01-17T10:28:02.340Z,22.85
2023-01-17T10:30:33.236Z,19.00
2023-01-17T10:33:03.994Z,19.05
2023-01-17T10:35:34.502Z,18.15
2023-01-17T10:38:05.980Z,17.17
2023-01-17T10:40:57.776Z,21.42
2023-01-17T10:44:03.996Z,21.65
2023-01-17T10:46:40.687Z,19.00
2023-01-17T10:49:22.254Z,31.00
2023-01-17T10:52:00.344Z,23.50
2023-01-17T10:54:33.120Z,22.60
2023-01-17T10:57:01.811Z,20.52
2023-01-17T10:59:37.192Z,22.27
2023-01-17T11:02:14.656Z,20.60
2023-01-17T11:04:42.415Z,20.50
2023-01-17T11:07:15.010Z,37.05
2023-01-17T11:09:44.006Z,20.05
2023-01-17T11:12:40.138Z,19.65
2023-01-17T11:15:22.003Z,17.20
2023-01-17T11:20:39.971Z,22.10
2023-01-17T11:23:18.051Z,19.02
2023-01-17T11:25:58.494Z,17.77
2023-01-17T11:28:31.082Z,17.85
2023-01-17T11:31:09.253Z,21.70
2023-01-17T11:33:47.706Z,18.27
2023-01-17T11:36:27.559Z,19.65
2023-01-17T11:39:17.507Z,18.33
2023-01-17T11:41:48.960Z,19.15
2023-01-17T11:44:33.356Z,17.23
2023-01-17T11:47:12.243Z,16.75
2023-01-17T11:49:49.306Z,20.95
2023-01-17T11:52:33.721Z,19.33
2023-01-17T11:55:00.846Z,18.80
2023-01-17T11:57:30.813Z,19.10
2023-01-17T12:00:46.739Z,19.95
2023-01-17T12:03:19.643Z,18.58
2023-01-17T12:06:00.076Z,22.27
2023-01-17T12:09:02.058Z,22.75
2023-01-17T12:12:14.116Z,18.33
2023-01-17T12:15:09.194Z,48.90
2023-01-17T12:18:05.831Z,17.77
2023-01-17T12:20:55.657Z,19.45
2023-01-17T12:23:48.398Z,21.77
2023-01-17T12:26:38.710Z,22.45
2023-01-17T12:29:32.751Z,18.70
2023-01-17T12:32:28.798Z,19.10
2023-01-17T12:35:35.844Z,19.70
2023-01-17T12:38:09.185Z,19.98
2023-01-17T12:40:40.187Z,16.23
2023-01-17T12:43:25.786Z,21.45
2023-01-17T12:45:54.701Z,18.50
2023-01-17T12:48:30.570Z,23.38
2023-01-17T12:51:31.812Z,17.65
2023-01-17T12:54:33.493Z,22.93
2023-01-17T12:57:14.135Z,17.80
2023-01-17T13:00:01.349Z,19.33
2023-01-17T13:02:36.872Z,18.02
2023-01-17T13:05:16.743Z,25.23
2023-01-17T13:07:55.505Z,22.73
2023-01-17T13:10:22.563Z,25.15
2023-01-17T13:12:53.495Z,22.23
2023-01-17T13:15:25.872Z,19.30
2023-01-17T13:18:14.724Z,21.98
2023-01-17T13:21:06.496Z,18.23
2023-01-17T13:23:55.832Z,21.85
2023-01-17T13:26:28.337Z,20.23
2023-01-17T13:29:15.331Z,26.20
2023-01-17T13:31:48.280Z,24.10
2023-01-17T13:34:40.339Z,19.90
2023-01-17T13:37:26.655Z,22.08
2023-01-17T13:40:05.401Z,24.13
2023-01-17T13:42:56.869Z,24.58
2023-01-17T13:45:37.218Z,25.92
2023-01-17T13:48:37.644Z,23.95
2023-01-17T13:51:07.872Z,33.40
2023-01-17T13:53:34.621Z,27.23
2023-01-17T13:56:10.140Z,27.95
2023-01-17T13:59:02.044Z,27.50
2023-01-17T14:01:38.460Z,30.40
2023-01-17T14:04:17.014Z,29.00
2023-01-17T14:06:55.408Z,25.98
2023-01-17T14:09:41.918Z,28.98
2023-01-17T14:12:11.433Z,25.40
2023-01-17T14:14:43.999Z,28.05
2023-01-17T14:17:26.588Z,31.67
2023-01-17T14:20:04.125Z,28.77
2023-01-17T14:22:38.936Z,29.45
2023-01-17T14:25:11.834Z,29.50
2023-01-17T14:27:51.552Z,26.92
2023-01-17T14:34:34.704Z,23.77
2023-01-17T14:37:57.450Z,27.10
2023-01-17T14:40:26.627Z,29.77
2023-01-17T14:55:42.061Z,28.25
2023-01-17T15:18:14.533Z,29.42
2023-01-17T15:24:34.565Z,26.15
2023-01-17T15:27:02.116Z,28.77
2023-01-17T15:29:32.867Z,33.72
2023-01-17T15:32:19.632Z,34.85
2023-01-17T15:38:28.940Z,35.17
2023-01-17T15:44:49.245Z,24.45
2023-01-17T15:47:39.753Z,23.08
2023-01-17T15:50:21.414Z,24.58
2023-01-17T15:53:02.213Z,24.75
2023-01-17T15:55:37.598Z,21.83
2023-01-17T15:58:21.531Z,21.15
2023-01-17T16:00:48.740Z,24.50
2023-01-17T16:03:32.892Z,61.00
2023-01-17T16:06:02.919Z,20.70
2023-01-17T16:08:41.559Z,20.17
2023-01-17T16:11:11.566Z,23.48
2023-01-17T16:13:39.224Z,20.88
2023-01-17T16:16:17.710Z,20.52
2023-01-17T16:18:46.572Z,20.98
2023-01-17T16:21:28.412Z,18.42
2023-01-17T16:23:58.487Z,17.67
2023-01-17T16:26:25.329Z,21.77
2023-01-17T16:28:52.407Z,19.33
2023-01-17T16:31:19.501Z,20.00
2023-01-17T16:33:49.425Z,23.05
2023-01-17T16:36:17.316Z,21.08
2023-01-17T16:38:45.379Z,21.25
2023-01-17T16:41:12.448Z,18.10
2023-01-17T16:43:40.595Z,20.02
2023-01-17T16:46:07.897Z,22.85
2023-01-17T16:48:36.808Z,31.20
2023-01-17T16:51:07.259Z,24.60
2023-01-17T16:53:35.260Z,24.73
2023-01-17T16:56:09.305Z,21.50
2023-01-17T16:58:36.096Z,22.02
2023-01-17T17:01:02.888Z,21.08
2023-01-17T17:03:31.014Z,23.65
2023-01-17T17:06:02.717Z,23.25
2023-01-17T17:11:16.604Z,21.83
2023-01-17T17:13:45.876Z,18.95
2023-01-17T17:16:21.822Z,20.38
2023-01-17T17:18:56.022Z,22.50
2023-01-17T17:21:22.852Z,23.42
2023-01-17T17:23:56.735Z,30.40
2023-01-17T17:26:26.652Z,33.47
2023-01-17T17:28:54.031Z,34.33
2023-01-17T17:31:21.090Z,38.35
2023-01-17T17:33:48.137Z,54.67
2023-01-17T17:36:15.109Z,29.65
2023-01-17T17:38:50.734Z,42.03
2023-01-17T17:41:20.186Z,58.00
2023-01-17T17:43:49.413Z,38.40
2023-01-17T17:46:17.313Z,44.28
2023-01-17T17:48:45.252Z,40.20
2023-01-17T17:51:34.057Z,29.80
2023-01-17T17:54:06.394Z,43.50
2023-01-17T17:56:35.428Z,34.10
2023-01-17T17:59:03.610Z,23.33
2023-01-17T18:01:31.157Z,24.77
2023-01-17T18:04:02.082Z,21.13
2023-01-17T18:06:28.860Z,19.73
2023-01-17T18:08:55.839Z,18.45
2023-01-17T18:11:27.575Z,16.33
2023-01-17T18:16:35.780Z,15.18
2023-01-17T18:19:04.124Z,15.90
2023-01-17T18:21:36.877Z,17.30
2023-01-17T18:24:06.751Z,17.17
2023-01-17T18:26:36.925Z,19.33
2023-01-17T18:29:08.272Z,26.17
2023-01-17T18:31:35.283Z,33.15
2023-01-17T18:34:07.765Z,33.58
2023-01-17T18:36:34.899Z,31.38
2023-01-17T18:39:09.120Z,30.83
2023-01-17T18:41:35.984Z,30.10
2023-01-17T18:44:06.653Z,31.17
2023-01-17T18:46:36.731Z,27.75
2023-01-17T18:49:06.841Z,32.25
2023-01-17T18:51:34.576Z,33.83
2023-01-17T18:54:05.809Z,35.00
2023-01-17T18:56:36.653Z,30.50
2023-01-17T18:59:10.518Z,27.70
2023-01-17T19:01:37.501Z,29.67
2023-01-17T19:04:06.010Z,23.60
2023-01-17T19:06:38.726Z,24.52
2023-01-17T19:09:07.728Z,24.38
2023-01-17T19:11:35.925Z,24.58
2023-01-17T19:14:04.082Z,23.67
2023-01-17T19:16:34.792Z,25.63
2023-01-17T19:19:04.796Z,26.10
2023-01-17T19:21:33.020Z,29.73
2023-01-17T19:24:03.033Z,27.27
2023-01-17T19:30:21.909Z,29.63
2023-01-17T19:32:52.384Z,32.40
2023-01-17T19:35:22.466Z,32.75
2023-01-17T19:37:51.531Z,31.98
2023-01-17T19:40:19.921Z,33.00
2023-01-17T19:42:47.626Z,30.05
2023-01-17T19:45:15.093Z,28.88
2023-01-17T19:47:41.960Z,25.60
2023-01-17T19:50:09.870Z,27.67
2023-01-17T19:52:38.780Z,29.55
2023-01-17T19:55:09.940Z,29.58
2023-01-17T19:57:37.472Z,33.40
2023-01-17T20:00:13.182Z,37.42
2023-01-17T20:02:40.468Z,38.22
2023-01-17T20:05:09.336Z,41.40
2023-01-17T20:07:36.143Z,55.38
2023-01-17T20:10:03.134Z,52.33
2023-01-17T20:12:33.623Z,45.90
2023-01-17T20:15:04.206Z,49.63
2023-01-17T20:17:31.791Z,50.88
2023-01-17T20:19:59.612Z,42.63
2023-01-17T20:22:26.593Z,40.42
2023-01-17T20:24:53.430Z,40.53
2023-01-17T20:27:24.068Z,50.28
2023-01-17T20:29:50.796Z,52.85
2023-01-17T20:32:18.074Z,46.45
2023-01-17T20:34:45.573Z,44.47
2023-01-17T20:37:14.482Z,44.33
2023-01-17T20:39:41.498Z,41.65
2023-01-17T20:42:08.269Z,47.58
2023-01-17T20:44:38.037Z,42.88
2023-01-17T20:47:05.019Z,49.55
2023-01-17T20:49:32.740Z,49.00
2023-01-17T20:52:02.239Z,45.72
2023-01-17T20:54:29.172Z,46.60
2023-01-17T20:56:55.993Z,44.90
2023-01-17T20:59:22.904Z,49.15
2023-01-17T21:01:50.658Z,46.38
2023-01-17T21:04:27.496Z,50.10
2023-01-17T21:06:54.766Z,42.78
2023-01-17T21:09:22.036Z,49.78
2023-01-17T21:11:49.031Z,52.78
2023-01-17T21:14:15.867Z,46.28
2023-01-17T21:16:44.312Z,48.25
2023-01-17T21:19:16.121Z,44.10
2023-01-17T21:24:17.877Z,50.92
2023-01-17T21:26:45.833Z,49.22
2023-01-17T21:29:18.331Z,46.63
2023-01-17T21:31:45.339Z,49.30
2023-01-17T21:34:13.667Z,51.88
2023-01-17T21:36:42.163Z,49.60
2023-01-17T21:39:29.135Z,45.25
2023-01-17T21:41:58.057Z,54.42
2023-01-17T21:44:27.852Z,48.20
2023-01-17T21:46:56.512Z,43.47
2023-01-17T21:49:23.644Z,44.22
2023-01-17T21:51:53.156Z,47.95
2023-01-17T21:54:20.272Z,47.15
2023-01-17T21:57:07.896Z,43.88
2023-01-17T21:59:34.695Z,42.97
2023-01-17T22:02:04.191Z,48.80
2023-01-17T22:04:31.000Z,44.55
2023-01-17T22:06:57.858Z,47.17
2023-01-17T22:09:24.644Z,47.67
2023-01-17T22:11:51.398Z,46.95
2023-01-17T22:14:22.865Z,45.17
2023-01-17T22:16:50.310Z,47.03
2023-01-17T22:19:19.107Z,49.08
2023-01-17T22:21:45.852Z,48.63
2023-01-17T22:24:13.705Z,41.40
2023-01-17T22:26:41.905Z,45.38
2023-01-17T22:29:11.093Z,48.25
2023-01-17T22:31:37.877Z,41.50
2023-01-17T22:34:05.460Z,41.55
2023-01-17T22:36:33.390Z,41.35
2023-01-17T22:39:00.584Z,42.10
2023-01-17T22:41:29.883Z,41.58
2023-01-17T22:43:58.706Z,41.72
2023-01-17T22:46:32.431Z,46.50
2023-01-17T22:48:59.807Z,44.22
2023-01-17T22:51:28.173Z,48.38
2023-01-17T22:53:58.260Z,51.60
2023-01-17T22:56:34.083Z,50.67
2023-01-17T22:59:01.530Z,49.05
2023-01-17T23:04:15.254Z,47.80
2023-01-17T23:06:45.390Z,51.53
2023-01-17T23:09:15.458Z,52.03
2023-01-17T23:11:49.951Z,50.83
2023-01-17T23:14:52.955Z,48.15
2023-01-17T23:17:39.676Z,44.55
2023-01-17T23:39:04.469Z,39.03
2023-01-17T23:41:49.591Z,43.15
2023-01-17T23:44:16.412Z,43.17
2023-01-17T23:46:44.868Z,49.17
2023-01-17T23:49:11.720Z,41.08
2023-01-17T23:51:38.444Z,48.42
2023-01-17T23:54:07.781Z,40.97
2023-01-17T23:56:34.528Z,45.20
2023-01-17T23:59:01.311Z,37.70
